sensor_id;sensor_type;location;lat;lon;timestamp;pressure;altitude;pressure_sealevel;temperature;humidity
77288;BME280;66345;42.694;23.346;2023-04-01T00:00:16;94651.72;;;11.20;55.86
77288;BME280;66345;42.694;23.346;2023-04-01T00:02:42;94648.28;;;11.13;56.49
77288;BME280;66345;42.694;23.346;2023-04-01T00:05:08;94641.59;;;11.04;57.13
77288;BME280;66345;42.694;23.346;2023-04-01T00:07:35;94648.16;;;10.88;57.38
77288;BME280;66345;42.694;23.346;2023-04-01T00:10:02;94643.72;;;10.89;57.44
77288;BME280;66345;42.694;23.346;2023-04-01T00:12:27;94653.06;;;10.98;57.43
77288;BME280;66345;42.694;23.346;2023-04-01T00:14:53;94653.13;;;10.78;58.17
77288;BME280;66345;42.694;23.346;2023-04-01T00:17:18;94660.06;;;10.72;58.27
77288;BME280;66345;42.694;23.346;2023-04-01T00:19:43;94655.38;;;10.81;57.92
77288;BME280;66345;42.694;23.346;2023-04-01T00:22:09;94653.91;;;10.85;57.92
77288;BME280;66345;42.694;23.346;2023-04-01T00:24:37;94655.53;;;10.86;57.41
77288;BME280;66345;42.694;23.346;2023-04-01T00:27:03;94656.47;;;10.60;57.98
77288;BME280;66345;42.694;23.346;2023-04-01T00:29:28;94645.03;;;10.66;58.48
77288;BME280;66345;42.694;23.346;2023-04-01T00:31:56;94655.91;;;10.38;59.47
77288;BME280;66345;42.694;23.346;2023-04-01T00:34:22;94651.63;;;10.44;59.60
77288;BME280;66345;42.694;23.346;2023-04-01T00:36:49;94645.28;;;10.51;59.63
77288;BME280;66345;42.694;23.346;2023-04-01T00:39:15;94645.88;;;10.47;58.65
77288;BME280;66345;42.694;23.346;2023-04-01T00:41:41;94640.94;;;10.64;58.48
77288;BME280;66345;42.694;23.346;2023-04-01T00:44:19;94635.03;;;10.62;57.94
77288;BME280;66345;42.694;23.346;2023-04-01T00:46:46;94622.19;;;10.59;58.56
77288;BME280;66345;42.694;23.346;2023-04-01T00:49:12;94622.56;;;10.62;58.94
77288;BME280;66345;42.694;23.346;2023-04-01T00:51:38;94619.28;;;10.73;59.25
77288;BME280;66345;42.694;23.346;2023-04-01T00:54:06;94614.72;;;10.80;59.44
77288;BME280;66345;42.694;23.346;2023-04-01T00:56:45;94611.22;;;10.87;58.24
77288;BME280;66345;42.694;23.346;2023-04-01T00:59:18;94611.22;;;10.87;58.41
77288;BME280;66345;42.694;23.346;2023-04-01T01:01:46;94596.72;;;10.51;59.74
77288;BME280;66345;42.694;23.346;2023-04-01T01:04:27;94596.25;;;10.61;59.55
77288;BME280;66345;42.694;23.346;2023-04-01T01:09:42;94593.16;;;10.64;59.98
77288;BME280;66345;42.694;23.346;2023-04-01T01:15:26;94580.59;;;10.52;60.01
77288;BME280;66345;42.694;23.346;2023-04-01T01:18:09;94576.56;;;10.37;61.37
77288;BME280;66345;42.694;23.346;2023-04-01T01:26:31;94564.56;;;10.21;62.29
77288;BME280;66345;42.694;23.346;2023-04-01T01:29:27;94559.81;;;10.43;60.81
77288;BME280;66345;42.694;23.346;2023-04-01T01:31:59;94560.19;;;10.53;60.01
77288;BME280;66345;42.694;23.346;2023-04-01T01:37:13;94544.31;;;10.40;59.71
77288;BME280;66345;42.694;23.346;2023-04-01T01:39:42;94541.31;;;10.30;59.61
77288;BME280;66345;42.694;23.346;2023-04-01T01:42:11;94548.00;;;10.32;60.28
77288;BME280;66345;42.694;23.346;2023-04-01T01:44:39;94549.13;;;10.56;59.66
77288;BME280;66345;42.694;23.346;2023-04-01T01:47:07;94547.50;;;10.55;58.92
77288;BME280;66345;42.694;23.346;2023-04-01T01:49:33;94542.19;;;10.55;58.95
77288;BME280;66345;42.694;23.346;2023-04-01T01:52:00;94542.84;;;10.50;59.54
77288;BME280;66345;42.694;23.346;2023-04-01T01:54:26;94541.56;;;10.66;58.72
77288;BME280;66345;42.694;23.346;2023-04-01T01:56:57;94543.41;;;10.59;58.80
77288;BME280;66345;42.694;23.346;2023-04-01T01:59:27;94536.38;;;10.33;61.26
77288;BME280;66345;42.694;23.346;2023-04-01T02:01:56;94530.44;;;10.44;59.81
77288;BME280;66345;42.694;23.346;2023-04-01T02:04:22;94538.72;;;10.61;59.53
77288;BME280;66345;42.694;23.346;2023-04-01T02:07:07;94532.81;;;10.59;59.48
77288;BME280;66345;42.694;23.346;2023-04-01T02:09:34;94525.19;;;10.69;59.60
77288;BME280;66345;42.694;23.346;2023-04-01T02:12:08;94523.91;;;10.78;58.43
77288;BME280;66345;42.694;23.346;2023-04-01T02:17:27;94517.97;;;10.83;58.07
77288;BME280;66345;42.694;23.346;2023-04-01T02:20:07;94515.66;;;10.62;59.05
77288;BME280;66345;42.694;23.346;2023-04-01T02:22:38;94514.50;;;10.51;59.31
77288;BME280;66345;42.694;23.346;2023-04-01T02:25:17;94501.88;;;10.78;59.23
77288;BME280;66345;42.694;23.346;2023-04-01T02:27:44;94508.56;;;10.80;58.77
77288;BME280;66345;42.694;23.346;2023-04-01T02:30:12;94507.06;;;10.66;58.71
77288;BME280;66345;42.694;23.346;2023-04-01T02:32:39;94509.06;;;10.71;58.74
77288;BME280;66345;42.694;23.346;2023-04-01T02:35:07;94518.59;;;10.78;59.28
77288;BME280;66345;42.694;23.346;2023-04-01T02:37:34;94518.47;;;10.67;60.23
77288;BME280;66345;42.694;23.346;2023-04-01T02:40:01;94513.06;;;10.48;60.03
77288;BME280;66345;42.694;23.346;2023-04-01T02:42:27;94524.50;;;10.80;58.89
77288;BME280;66345;42.694;23.346;2023-04-01T02:44:53;94526.66;;;10.97;58.26
77288;BME280;66345;42.694;23.346;2023-04-01T02:47:18;94525.63;;;10.98;58.00
77288;BME280;66345;42.694;23.346;2023-04-01T02:49:43;94535.22;;;10.99;57.49
77288;BME280;66345;42.694;23.346;2023-04-01T02:52:09;94541.06;;;10.76;58.66
77288;BME280;66345;42.694;23.346;2023-04-01T02:54:34;94540.28;;;10.75;58.74
77288;BME280;66345;42.694;23.346;2023-04-01T02:57:00;94544.44;;;10.58;58.72
77288;BME280;66345;42.694;23.346;2023-04-01T02:59:25;94540.56;;;10.54;58.90
77288;BME280;66345;42.694;23.346;2023-04-01T03:01:51;94551.88;;;10.36;59.37
77288;BME280;66345;42.694;23.346;2023-04-01T03:04:16;94564.81;;;10.06;60.21
77288;BME280;66345;42.694;23.346;2023-04-01T03:06:41;94552.50;;;10.18;60.03
77288;BME280;66345;42.694;23.346;2023-04-01T03:09:07;94564.38;;;10.16;59.89
77288;BME280;66345;42.694;23.346;2023-04-01T03:11:32;94555.81;;;10.07;59.40
77288;BME280;66345;42.694;23.346;2023-04-01T03:13:57;94559.50;;;10.13;59.73
77288;BME280;66345;42.694;23.346;2023-04-01T03:16:23;94562.16;;;10.06;60.10
77288;BME280;66345;42.694;23.346;2023-04-01T03:18:48;94555.41;;;10.23;59.55
77288;BME280;66345;42.694;23.346;2023-04-01T03:21:17;94561.88;;;10.34;58.98
77288;BME280;66345;42.694;23.346;2023-04-01T03:23:43;94565.56;;;10.26;59.24
77288;BME280;66345;42.694;23.346;2023-04-01T03:26:09;94570.72;;;9.95;60.03
77288;BME280;66345;42.694;23.346;2023-04-01T03:28:34;94564.75;;;10.19;59.54
77288;BME280;66345;42.694;23.346;2023-04-01T03:31:00;94569.66;;;10.29;60.37
77288;BME280;66345;42.694;23.346;2023-04-01T03:33:25;94579.91;;;10.06;61.17
77288;BME280;66345;42.694;23.346;2023-04-01T03:35:51;94561.72;;;10.22;61.50
77288;BME280;66345;42.694;23.346;2023-04-01T03:38:17;94560.88;;;10.22;61.45
77288;BME280;66345;42.694;23.346;2023-04-01T03:40:43;94563.94;;;10.19;61.50
77288;BME280;66345;42.694;23.346;2023-04-01T03:43:09;94551.09;;;10.29;61.67
77288;BME280;66345;42.694;23.346;2023-04-01T03:45:35;94540.28;;;10.31;61.94
77288;BME280;66345;42.694;23.346;2023-04-01T03:48:01;94545.19;;;10.20;62.33
77288;BME280;66345;42.694;23.346;2023-04-01T03:50:26;94512.50;;;10.40;61.83
77288;BME280;66345;42.694;23.346;2023-04-01T03:52:52;94509.66;;;10.35;62.00
77288;BME280;66345;42.694;23.346;2023-04-01T03:55:17;94490.75;;;10.24;62.60
77288;BME280;66345;42.694;23.346;2023-04-01T03:57:43;94485.16;;;10.39;61.19
77288;BME280;66345;42.694;23.346;2023-04-01T04:00:09;94476.03;;;10.22;62.32
77288;BME280;66345;42.694;23.346;2023-04-01T04:02:35;94464.97;;;10.38;61.35
77288;BME280;66345;42.694;23.346;2023-04-01T04:05:01;94445.03;;;10.61;60.49
77288;BME280;66345;42.694;23.346;2023-04-01T04:07:26;94456.47;;;10.61;61.05
77288;BME280;66345;42.694;23.346;2023-04-01T04:09:51;94452.97;;;10.67;61.71
77288;BME280;66345;42.694;23.346;2023-04-01T04:12:17;94446.19;;;10.71;59.85
77288;BME280;66345;42.694;23.346;2023-04-01T04:14:42;94448.25;;;10.38;60.19
77288;BME280;66345;42.694;23.346;2023-04-01T04:17:10;94439.56;;;10.24;60.97
77288;BME280;66345;42.694;23.346;2023-04-01T04:19:41;94433.97;;;10.39;59.06
77288;BME280;66345;42.694;23.346;2023-04-01T04:22:06;94430.53;;;10.32;60.14
77288;BME280;66345;42.694;23.346;2023-04-01T04:24:34;94432.94;;;10.40;59.92
77288;BME280;66345;42.694;23.346;2023-04-01T04:26:59;94427.59;;;10.46;60.55
77288;BME280;66345;42.694;23.346;2023-04-01T04:29:25;94414.06;;;10.54;59.44
77288;BME280;66345;42.694;23.346;2023-04-01T04:31:50;94407.50;;;10.57;58.77
77288;BME280;66345;42.694;23.346;2023-04-01T04:34:16;94408.88;;;10.35;59.19
77288;BME280;66345;42.694;23.346;2023-04-01T04:36:41;94418.81;;;10.46;59.60
77288;BME280;66345;42.694;23.346;2023-04-01T04:39:07;94399.16;;;10.28;60.00
77288;BME280;66345;42.694;23.346;2023-04-01T04:41:32;94407.69;;;10.31;60.31
77288;BME280;66345;42.694;23.346;2023-04-01T04:43:57;94408.19;;;10.14;60.89
77288;BME280;66345;42.694;23.346;2023-04-01T04:46:24;94399.31;;;9.89;60.53
77288;BME280;66345;42.694;23.346;2023-04-01T04:48:50;94407.88;;;9.97;60.73
77288;BME280;66345;42.694;23.346;2023-04-01T04:51:17;94401.19;;;10.26;59.15
77288;BME280;66345;42.694;23.346;2023-04-01T04:53:43;94394.81;;;10.34;59.23
77288;BME280;66345;42.694;23.346;2023-04-01T04:56:09;94377.16;;;10.53;58.38
77288;BME280;66345;42.694;23.346;2023-04-01T04:58:36;94384.38;;;10.39;58.75
77288;BME280;66345;42.694;23.346;2023-04-01T05:01:09;94380.53;;;10.35;58.18
77288;BME280;66345;42.694;23.346;2023-04-01T05:03:36;94376.56;;;10.51;58.00
77288;BME280;66345;42.694;23.346;2023-04-01T05:06:02;94377.69;;;10.37;59.15
77288;BME280;66345;42.694;23.346;2023-04-01T05:08:28;94381.75;;;10.64;58.84
77288;BME280;66345;42.694;23.346;2023-04-01T05:10:54;94371.13;;;10.64;58.15
77288;BME280;66345;42.694;23.346;2023-04-01T05:13:19;94361.97;;;10.85;57.23
77288;BME280;66345;42.694;23.346;2023-04-01T05:15:45;94347.09;;;10.84;57.38
77288;BME280;66345;42.694;23.346;2023-04-01T05:18:10;94348.63;;;10.48;57.85
77288;BME280;66345;42.694;23.346;2023-04-01T05:20:36;94353.22;;;10.60;58.86
77288;BME280;66345;42.694;23.346;2023-04-01T05:23:02;94349.16;;;10.57;58.58
77288;BME280;66345;42.694;23.346;2023-04-01T05:25:28;94345.19;;;10.41;59.67
77288;BME280;66345;42.694;23.346;2023-04-01T05:27:53;94332.44;;;10.56;59.16
77288;BME280;66345;42.694;23.346;2023-04-01T05:30:19;94327.50;;;10.60;58.53
77288;BME280;66345;42.694;23.346;2023-04-01T05:32:44;94341.00;;;10.59;58.32
77288;BME280;66345;42.694;23.346;2023-04-01T05:35:10;94332.91;;;10.97;57.73
77288;BME280;66345;42.694;23.346;2023-04-01T05:37:36;94340.97;;;11.27;56.66
77288;BME280;66345;42.694;23.346;2023-04-01T05:40:03;94348.97;;;11.38;56.36
77288;BME280;66345;42.694;23.346;2023-04-01T05:42:29;94345.31;;;12.06;54.92
77288;BME280;66345;42.694;23.346;2023-04-01T05:44:54;94342.69;;;13.18;50.67
77288;BME280;66345;42.694;23.346;2023-04-01T05:47:21;94330.78;;;14.58;47.18
77288;BME280;66345;42.694;23.346;2023-04-01T05:49:46;94318.94;;;16.04;43.03
77288;BME280;66345;42.694;23.346;2023-04-01T05:52:12;94317.28;;;16.79;40.26
77288;BME280;66345;42.694;23.346;2023-04-01T05:54:37;94327.78;;;15.82;42.12
77288;BME280;66345;42.694;23.346;2023-04-01T05:57:03;94307.19;;;15.22;43.75
77288;BME280;66345;42.694;23.346;2023-04-01T05:59:28;94310.91;;;14.83;43.45
77288;BME280;66345;42.694;23.346;2023-04-01T06:01:53;94315.50;;;14.08;45.33
77288;BME280;66345;42.694;23.346;2023-04-01T06:04:19;94313.81;;;14.19;45.52
77288;BME280;66345;42.694;23.346;2023-04-01T06:06:45;94310.78;;;14.94;43.28
77288;BME280;66345;42.694;23.346;2023-04-01T06:09:26;94322.50;;;15.66;41.96
77288;BME280;66345;42.694;23.346;2023-04-01T06:25:49;94319.22;;;15.80;41.61
77288;BME280;66345;42.694;23.346;2023-04-01T06:28:38;94318.34;;;14.97;43.15
77288;BME280;66345;42.694;23.346;2023-04-01T06:34:29;94312.72;;;15.76;41.99
77288;BME280;66345;42.694;23.346;2023-04-01T06:45:58;94294.03;;;15.38;43.53
77288;BME280;66345;42.694;23.346;2023-04-01T06:54:05;94298.59;;;14.03;47.22
77288;BME280;66345;42.694;23.346;2023-04-01T06:56:36;94271.91;;;13.74;47.88
77288;BME280;66345;42.694;23.346;2023-04-01T06:59:12;94256.78;;;13.63;48.19
77288;BME280;66345;42.694;23.346;2023-04-01T07:01:44;94268.69;;;13.72;48.77
77288;BME280;66345;42.694;23.346;2023-04-01T07:09:36;94277.59;;;14.06;48.33
77288;BME280;66345;42.694;23.346;2023-04-01T07:12:11;94279.19;;;14.07;48.91
77288;BME280;66345;42.694;23.346;2023-04-01T07:14:39;94257.63;;;14.42;48.25
77288;BME280;66345;42.694;23.346;2023-04-01T07:17:25;94249.31;;;14.73;47.66
77288;BME280;66345;42.694;23.346;2023-04-01T07:22:31;94243.34;;;14.82;48.16
77288;BME280;66345;42.694;23.346;2023-04-01T07:25:04;94254.75;;;14.44;49.32
77288;BME280;66345;42.694;23.346;2023-04-01T07:27:36;94261.09;;;14.43;49.60
77288;BME280;66345;42.694;23.346;2023-04-01T07:30:03;94258.06;;;14.68;49.32
77288;BME280;66345;42.694;23.346;2023-04-01T07:40:51;94259.78;;;14.96;48.06
77288;BME280;66345;42.694;23.346;2023-04-01T07:46:26;94246.84;;;14.88;48.53
77288;BME280;66345;42.694;23.346;2023-04-01T08:05:17;94228.38;;;15.03;46.54
77288;BME280;66345;42.694;23.346;2023-04-01T08:10:52;94225.97;;;15.23;45.94
77288;BME280;66345;42.694;23.346;2023-04-01T08:21:28;94202.63;;;15.41;45.79
77288;BME280;66345;42.694;23.346;2023-04-01T08:23:57;94193.72;;;15.30;46.96
77288;BME280;66345;42.694;23.346;2023-04-01T08:29:03;94195.31;;;15.53;46.51
77288;BME280;66345;42.694;23.346;2023-04-01T08:31:48;94198.34;;;15.40;46.64
77288;BME280;66345;42.694;23.346;2023-04-01T08:34:20;94181.19;;;15.79;45.63
77288;BME280;66345;42.694;23.346;2023-04-01T08:36:53;94173.97;;;15.85;45.49
77288;BME280;66345;42.694;23.346;2023-04-01T08:39:29;94157.06;;;16.44;44.14
77288;BME280;66345;42.694;23.346;2023-04-01T08:47:13;94116.13;;;18.14;40.89
77288;BME280;66345;42.694;23.346;2023-04-01T08:55:30;94096.88;;;26.72;24.45
77288;BME280;66345;42.694;23.346;2023-04-01T08:58:17;94121.13;;;24.45;26.79
77288;BME280;66345;42.694;23.346;2023-04-01T09:06:28;94128.44;;;25.95;24.36
77288;BME280;66345;42.694;23.346;2023-04-01T09:17:04;94131.38;;;20.86;31.27
77288;BME280;66345;42.694;23.346;2023-04-01T09:27:54;94119.50;;;18.91;32.91
77288;BME280;66345;42.694;23.346;2023-04-01T09:35:39;94101.16;;;19.03;33.48
77288;BME280;66345;42.694;23.346;2023-04-01T09:41:02;94094.03;;;18.48;33.99
77288;BME280;66345;42.694;23.346;2023-04-01T09:46:18;94080.13;;;18.05;35.05
77288;BME280;66345;42.694;23.346;2023-04-01T10:02:38;94050.06;;;17.62;37.21
77288;BME280;66345;42.694;23.346;2023-04-01T10:26:56;94033.66;;;17.18;39.75
77288;BME280;66345;42.694;23.346;2023-04-01T10:40:57;94017.94;;;16.64;40.88
77288;BME280;66345;42.694;23.346;2023-04-01T10:52:34;93990.97;;;16.91;40.45
77288;BME280;66345;42.694;23.346;2023-04-01T10:58:20;93987.81;;;16.36;42.20
77288;BME280;66345;42.694;23.346;2023-04-01T11:21:01;93959.59;;;16.91;40.98
77288;BME280;66345;42.694;23.346;2023-04-01T11:23:47;93955.09;;;17.02;40.02
77288;BME280;66345;42.694;23.346;2023-04-01T11:31:37;94004.06;;;16.82;40.86
77288;BME280;66345;42.694;23.346;2023-04-01T11:34:21;94013.16;;;16.71;42.00
77288;BME280;66345;42.694;23.346;2023-04-01T11:50:18;94172.91;;;14.16;57.34
77288;BME280;66345;42.694;23.346;2023-04-01T11:55:56;94240.16;;;12.69;67.83
77288;BME280;66345;42.694;23.346;2023-04-01T11:58:52;94251.31;;;12.01;70.45
77288;BME280;66345;42.694;23.346;2023-04-01T12:01:25;94250.72;;;11.99;71.13
77288;BME280;66345;42.694;23.346;2023-04-01T12:10:04;94256.41;;;12.14;72.96
77288;BME280;66345;42.694;23.346;2023-04-01T12:12:24;94226.03;;;12.10;74.19
77288;BME280;66345;42.694;23.346;2023-04-01T12:18:16;94225.56;;;12.36;74.52
77288;BME280;66345;42.694;23.346;2023-04-01T12:21:02;94215.63;;;12.67;74.40
77288;BME280;66345;42.694;23.346;2023-04-01T12:29:19;94232.31;;;13.14;71.21
77288;BME280;66345;42.694;23.346;2023-04-01T12:32:23;94233.69;;;13.40;70.99
77288;BME280;66345;42.694;23.346;2023-04-01T12:35:13;94245.31;;;13.22;70.89
77288;BME280;66345;42.694;23.346;2023-04-01T12:46:14;94238.28;;;12.11;72.46
77288;BME280;66345;42.694;23.346;2023-04-01T12:49:08;94235.94;;;12.03;73.30
77288;BME280;66345;42.694;23.346;2023-04-01T13:18:57;94154.47;;;12.95;69.85
77288;BME280;66345;42.694;23.346;2023-04-01T13:29:41;94133.94;;;13.08;68.36
77288;BME280;66345;42.694;23.346;2023-04-01T13:40:26;94094.75;;;13.48;68.43
77288;BME280;66345;42.694;23.346;2023-04-01T13:43:04;94097.63;;;13.30;67.48
77288;BME280;66345;42.694;23.346;2023-04-01T13:57:19;94088.41;;;12.81;67.72
77288;BME280;66345;42.694;23.346;2023-04-01T14:13:59;94068.28;;;12.85;67.78
77288;BME280;66345;42.694;23.346;2023-04-01T14:16:55;94065.69;;;12.90;66.19
77288;BME280;66345;42.694;23.346;2023-04-01T14:32:56;94018.53;;;13.19;63.28
77288;BME280;66345;42.694;23.346;2023-04-01T14:35:35;94020.00;;;13.10;62.93
77288;BME280;66345;42.694;23.346;2023-04-01T14:38:23;94011.94;;;13.21;63.57
77288;BME280;66345;42.694;23.346;2023-04-01T14:48:52;94021.69;;;14.00;60.42
77288;BME280;66345;42.694;23.346;2023-04-01T14:51:38;94024.47;;;13.71;60.13
77288;BME280;66345;42.694;23.346;2023-04-01T14:59:13;94021.50;;;13.34;62.33
77288;BME280;66345;42.694;23.346;2023-04-01T15:10:43;94039.50;;;13.77;58.45
77288;BME280;66345;42.694;23.346;2023-04-01T15:24:34;94048.88;;;13.18;61.52
77288;BME280;66345;42.694;23.346;2023-04-01T15:27:23;94043.91;;;13.21;61.70
77288;BME280;66345;42.694;23.346;2023-04-01T15:56:49;94268.88;;;11.42;64.88
77288;BME280;66345;42.694;23.346;2023-04-01T15:59:49;94286.41;;;10.88;66.86
77288;BME280;66345;42.694;23.346;2023-04-01T16:05:00;94327.63;;;10.15;71.13
77288;BME280;66345;42.694;23.346;2023-04-01T16:07:55;94316.31;;;9.95;73.78
77288;BME280;66345;42.694;23.346;2023-04-01T16:10:54;94316.09;;;9.65;76.36
77288;BME280;66345;42.694;23.346;2023-04-01T16:13:30;94313.69;;;9.57;76.98
77288;BME280;66345;42.694;23.346;2023-04-01T16:21:38;94320.78;;;9.11;79.62
77288;BME280;66345;42.694;23.346;2023-04-01T16:24:19;94329.31;;;9.13;80.33
77288;BME280;66345;42.694;23.346;2023-04-01T16:26:52;94325.69;;;9.14;79.52
77288;BME280;66345;42.694;23.346;2023-04-01T16:29:46;94338.63;;;9.29;78.52
77288;BME280;66345;42.694;23.346;2023-04-01T16:32:21;94338.06;;;9.21;77.99
77288;BME280;66345;42.694;23.346;2023-04-01T16:37:49;94350.69;;;9.18;77.44
77288;BME280;66345;42.694;23.346;2023-04-01T16:42:51;94360.91;;;9.15;77.33
77288;BME280;66345;42.694;23.346;2023-04-01T16:45:25;94342.56;;;9.13;77.41
77288;BME280;66345;42.694;23.346;2023-04-01T16:50:59;94360.13;;;9.01;75.81
77288;BME280;66345;42.694;23.346;2023-04-01T16:53:45;94355.63;;;9.08;75.76
77288;BME280;66345;42.694;23.346;2023-04-01T16:59:02;94351.16;;;9.02;74.04
77288;BME280;66345;42.694;23.346;2023-04-01T17:01:40;94373.13;;;9.03;74.15
77288;BME280;66345;42.694;23.346;2023-04-01T17:07:21;94380.06;;;8.97;73.29
77288;BME280;66345;42.694;23.346;2023-04-01T17:15:44;94391.28;;;8.86;73.04
77288;BME280;66345;42.694;23.346;2023-04-01T17:20:54;94408.78;;;8.80;73.09
77288;BME280;66345;42.694;23.346;2023-04-01T17:28:58;94402.28;;;8.63;72.35
77288;BME280;66345;42.694;23.346;2023-04-01T17:36:54;94396.78;;;8.65;73.40
77288;BME280;66345;42.694;23.346;2023-04-01T17:39:45;94393.53;;;8.69;73.40
77288;BME280;66345;42.694;23.346;2023-04-01T17:47:46;94425.88;;;8.71;73.06
77288;BME280;66345;42.694;23.346;2023-04-01T17:50:44;94431.97;;;8.78;73.22
77288;BME280;66345;42.694;23.346;2023-04-01T18:04:08;94470.41;;;8.74;72.81
77288;BME280;66345;42.694;23.346;2023-04-01T18:06:36;94485.06;;;8.70;72.84
77288;BME280;66345;42.694;23.346;2023-04-01T18:22:59;94496.00;;;8.47;71.48
77288;BME280;66345;42.694;23.346;2023-04-01T18:25:37;94480.28;;;8.32;71.65
77288;BME280;66345;42.694;23.346;2023-04-01T18:31:20;94491.84;;;8.25;72.95
77288;BME280;66345;42.694;23.346;2023-04-01T18:34:06;94498.16;;;8.24;72.09
77288;BME280;66345;42.694;23.346;2023-04-01T18:36:55;94498.22;;;8.37;72.22
77288;BME280;66345;42.694;23.346;2023-04-01T18:39:35;94498.44;;;8.42;71.85
77288;BME280;66345;42.694;23.346;2023-04-01T18:42:30;94495.56;;;8.37;71.62
77288;BME280;66345;42.694;23.346;2023-04-01T18:45:19;94491.34;;;8.49;72.06
77288;BME280;66345;42.694;23.346;2023-04-01T18:48:14;94492.72;;;8.45;71.58
77288;BME280;66345;42.694;23.346;2023-04-01T18:50:53;94492.78;;;8.58;71.59
77288;BME280;66345;42.694;23.346;2023-04-01T18:55:59;94500.91;;;8.57;70.80
77288;BME280;66345;42.694;23.346;2023-04-01T18:58:35;94502.75;;;8.63;70.38
77288;BME280;66345;42.694;23.346;2023-04-01T19:01:22;94512.09;;;8.66;70.50
77288;BME280;66345;42.694;23.346;2023-04-01T19:06:51;94516.81;;;8.77;69.44
77288;BME280;66345;42.694;23.346;2023-04-01T19:09:44;94520.91;;;8.86;69.53
77288;BME280;66345;42.694;23.346;2023-04-01T19:15:25;94517.84;;;9.02;68.20
77288;BME280;66345;42.694;23.346;2023-04-01T19:32:14;94532.91;;;8.88;67.51
77288;BME280;66345;42.694;23.346;2023-04-01T19:37:38;94540.41;;;8.92;67.07
77288;BME280;66345;42.694;23.346;2023-04-01T19:46:14;94553.25;;;8.88;66.22
77288;BME280;66345;42.694;23.346;2023-04-01T19:49:06;94560.38;;;8.87;65.67
77288;BME280;66345;42.694;23.346;2023-04-01T19:51:50;94553.03;;;8.89;65.48
77288;BME280;66345;42.694;23.346;2023-04-01T20:00:27;94564.84;;;8.80;65.81
77288;BME280;66345;42.694;23.346;2023-04-01T20:03:05;94563.22;;;8.86;66.04
77288;BME280;66345;42.694;23.346;2023-04-01T20:05:47;94567.06;;;8.77;65.23
77288;BME280;66345;42.694;23.346;2023-04-01T20:14:26;94572.94;;;8.72;66.04
77288;BME280;66345;42.694;23.346;2023-04-01T20:20:19;94575.00;;;8.77;65.60
77288;BME280;66345;42.694;23.346;2023-04-01T20:28:02;94577.91;;;9.08;65.46
77288;BME280;66345;42.694;23.346;2023-04-01T20:47:16;94594.38;;;8.97;61.87
77288;BME280;66345;42.694;23.346;2023-04-01T20:49:54;94597.63;;;8.93;61.76
77288;BME280;66345;42.694;23.346;2023-04-01T20:52:49;94596.59;;;8.94;61.25
77288;BME280;66345;42.694;23.346;2023-04-01T20:55:52;94597.44;;;9.01;62.22
77288;BME280;66345;42.694;23.346;2023-04-01T20:58:25;94588.44;;;8.88;62.54
77288;BME280;66345;42.694;23.346;2023-04-01T21:09:29;94605.16;;;8.96;62.47
77288;BME280;66345;42.694;23.346;2023-04-01T21:20:37;94626.91;;;8.91;62.62
77288;BME280;66345;42.694;23.346;2023-04-01T21:23:35;94626.31;;;8.96;62.39
77288;BME280;66345;42.694;23.346;2023-04-01T21:28:55;94617.00;;;9.20;62.30
77288;BME280;66345;42.694;23.346;2023-04-01T21:37:10;94624.72;;;9.01;61.26
77288;BME280;66345;42.694;23.346;2023-04-01T22:00:08;94625.13;;;9.05;60.84
77288;BME280;66345;42.694;23.346;2023-04-01T22:17:15;94606.56;;;8.85;61.22
77288;BME280;66345;42.694;23.346;2023-04-01T22:22:24;94603.50;;;8.88;62.14
77288;BME280;66345;42.694;23.346;2023-04-01T22:25:12;94603.09;;;8.78;62.47
77288;BME280;66345;42.694;23.346;2023-04-01T22:27:49;94608.56;;;8.76;62.09
77288;BME280;66345;42.694;23.346;2023-04-01T22:32:48;94607.50;;;8.57;62.70
77288;BME280;66345;42.694;23.346;2023-04-01T22:35:33;94607.09;;;8.54;62.47
77288;BME280;66345;42.694;23.346;2023-04-01T22:43:42;94608.31;;;8.65;62.19
77288;BME280;66345;42.694;23.346;2023-04-01T22:48:55;94619.31;;;8.61;62.19
77288;BME280;66345;42.694;23.346;2023-04-01T22:56:49;94620.06;;;8.49;61.74
77288;BME280;66345;42.694;23.346;2023-04-01T22:59:44;94629.84;;;8.55;61.97
77288;BME280;66345;42.694;23.346;2023-04-01T23:02:14;94630.19;;;8.45;61.67
77288;BME280;66345;42.694;23.346;2023-04-01T23:04:43;94623.28;;;8.44;61.37
77288;BME280;66345;42.694;23.346;2023-04-01T23:12:59;94631.25;;;8.51;60.25
77288;BME280;66345;42.694;23.346;2023-04-01T23:15:27;94636.34;;;8.52;60.96
77288;BME280;66345;42.694;23.346;2023-04-01T23:26:08;94636.81;;;8.63;60.54
77288;BME280;66345;42.694;23.346;2023-04-01T23:31:25;94647.00;;;8.72;60.04
77288;BME280;66345;42.694;23.346;2023-04-01T23:36:43;94647.38;;;8.63;60.20
77288;BME280;66345;42.694;23.346;2023-04-01T23:41:47;94643.91;;;8.55;59.74
77288;BME280;66345;42.694;23.346;2023-04-01T23:44:13;94637.63;;;8.63;59.88
77288;BME280;66345;42.694;23.346;2023-04-01T23:46:42;94636.53;;;8.51;60.04
77288;BME280;66345;42.694;23.346;2023-04-01T23:49:36;94632.06;;;8.51;59.67
77288;BME280;66345;42.694;23.346;2023-04-01T23:52:13;94638.38;;;8.50;59.71
77288;BME280;66345;42.694;23.346;2023-04-01T23:54:58;94642.44;;;8.53;59.17
77288;BME280;66345;42.694;23.346;2023-04-01T23:57:33;94640.44;;;8.55;59.41
